createdAt,value
2022-10-22T00:00:28.844Z,1.50
2022-10-22T00:03:15.937Z,1.60
2022-10-22T00:06:03.176Z,1.25
2022-10-22T00:08:50.468Z,1.20
2022-10-22T00:11:37.791Z,1.40
2022-10-22T00:14:24.853Z,1.20
2022-10-22T00:17:11.948Z,1.40
2022-10-22T00:19:59.024Z,1.30
2022-10-22T00:22:46.701Z,1.95
2022-10-22T00:25:35.181Z,1.27
2022-10-22T00:28:23.247Z,1.65
2022-10-22T00:31:10.358Z,1.27
2022-10-22T00:33:57.532Z,1.05
2022-10-22T00:36:44.669Z,1.10
2022-10-22T00:39:31.928Z,1.17
2022-10-22T00:42:24.504Z,1.00
2022-10-22T00:45:11.520Z,0.93
2022-10-22T00:48:07.149Z,1.25
2022-10-22T00:50:57.252Z,1.13
2022-10-22T00:53:49.519Z,1.30
2022-10-22T00:56:37.940Z,1.20
2022-10-22T00:59:25.028Z,1.35
2022-10-22T01:02:12.129Z,0.95
2022-10-22T01:04:59.420Z,1.17
2022-10-22T01:07:52.812Z,1.10
2022-10-22T01:10:42.941Z,1.00
2022-10-22T01:13:38.437Z,1.00
2022-10-22T01:16:41.410Z,0.98
2022-10-22T01:19:56.745Z,0.98
2022-10-22T01:23:01.009Z,0.90
2022-10-22T01:25:56.454Z,0.80
2022-10-22T01:29:02.283Z,0.95
2022-10-22T01:31:57.036Z,1.02
2022-10-22T01:34:48.568Z,0.80
2022-10-22T01:37:41.827Z,0.90
2022-10-22T01:40:30.171Z,1.10
2022-10-22T01:43:17.553Z,1.00
2022-10-22T01:46:06.872Z,1.10
2022-10-22T01:49:12.725Z,0.98
2022-10-22T01:52:25.866Z,0.88
2022-10-22T01:55:31.225Z,1.00
2022-10-22T01:58:41.443Z,0.80
2022-10-22T02:01:55.067Z,0.93
2022-10-22T02:05:00.094Z,0.90
2022-10-22T02:07:50.906Z,1.00
2022-10-22T02:10:40.355Z,0.93
2022-10-22T02:13:34.129Z,0.90
2022-10-22T02:16:38.238Z,1.30
2022-10-22T02:19:45.816Z,0.95
2022-10-22T02:22:33.877Z,1.10
2022-10-22T02:25:23.297Z,1.13
2022-10-22T02:28:13.577Z,0.80
2022-10-22T02:31:23.332Z,1.20
2022-10-22T02:34:14.633Z,0.98
2022-10-22T02:37:03.256Z,1.00
2022-10-22T02:39:51.598Z,0.80
2022-10-22T02:42:40.642Z,0.93
2022-10-22T02:45:27.933Z,1.00
2022-10-22T02:48:15.094Z,0.90
2022-10-22T02:51:02.308Z,0.90
2022-10-22T02:53:49.385Z,0.85
2022-10-22T02:56:36.540Z,0.93
2022-10-22T02:59:23.734Z,1.08
2022-10-22T03:02:10.857Z,0.90
2022-10-22T03:04:57.963Z,1.10
2022-10-22T03:07:45.015Z,1.10
2022-10-22T03:10:32.087Z,0.90
2022-10-22T03:13:19.154Z,1.00
2022-10-22T03:16:06.593Z,1.20
2022-10-22T03:18:53.717Z,0.90
2022-10-22T03:21:58.320Z,1.10
2022-10-22T03:24:48.237Z,0.98
2022-10-22T03:27:37.575Z,1.00
2022-10-22T03:30:25.395Z,1.30
2022-10-22T03:33:12.543Z,1.25
2022-10-22T03:36:00.587Z,1.20
2022-10-22T03:38:47.855Z,1.10
2022-10-22T03:41:35.896Z,0.93
2022-10-22T03:44:24.459Z,1.40
2022-10-22T03:47:12.043Z,1.10
2022-10-22T03:49:59.215Z,1.27
2022-10-22T03:52:46.313Z,1.00
2022-10-22T03:55:33.467Z,1.33
2022-10-22T03:58:20.557Z,1.20
2022-10-22T04:01:09.858Z,1.33
2022-10-22T04:03:58.068Z,2.03
2022-10-22T04:06:45.128Z,1.20
2022-10-22T04:09:33.477Z,1.30
2022-10-22T04:12:20.550Z,1.27
2022-10-22T04:15:08.416Z,1.30
2022-10-22T04:17:55.930Z,1.20
2022-10-22T04:20:42.985Z,1.30
2022-10-22T04:23:30.128Z,1.20
2022-10-22T04:26:19.063Z,1.10
2022-10-22T04:29:10.528Z,1.30
2022-10-22T04:32:00.511Z,1.75
2022-10-22T04:34:47.661Z,1.23
2022-10-22T04:37:35.297Z,1.10
2022-10-22T04:40:22.648Z,1.10
2022-10-22T04:43:10.056Z,0.95
2022-10-22T04:46:00.728Z,0.95
2022-10-22T04:48:48.205Z,1.35
2022-10-22T04:51:35.562Z,1.10
2022-10-22T04:54:22.618Z,1.00
2022-10-22T04:57:09.723Z,1.10
2022-10-22T04:59:56.923Z,1.20
2022-10-22T05:02:44.795Z,1.20
2022-10-22T05:05:32.507Z,1.33
2022-10-22T05:08:19.574Z,1.40
2022-10-22T05:11:18.786Z,1.40
2022-10-22T05:14:07.696Z,1.50
2022-10-22T05:16:55.132Z,1.10
2022-10-22T05:19:42.230Z,1.35
2022-10-22T05:22:29.335Z,1.10
2022-10-22T05:25:16.694Z,1.27
2022-10-22T05:28:03.832Z,1.33
2022-10-22T05:30:56.242Z,1.25
2022-10-22T05:33:43.573Z,1.30
2022-10-22T05:36:30.824Z,1.30
2022-10-22T05:39:17.947Z,1.45
2022-10-22T05:42:05.135Z,1.25
2022-10-22T05:44:52.309Z,1.42
2022-10-22T05:47:39.348Z,1.67
2022-10-22T05:50:26.420Z,1.80
2022-10-22T05:53:13.463Z,2.40
2022-10-22T05:56:02.567Z,1.80
2022-10-22T05:58:50.393Z,1.67
2022-10-22T06:01:39.442Z,1.60
2022-10-22T06:04:26.527Z,1.50
2022-10-22T06:07:15.850Z,1.52
2022-10-22T06:10:03.286Z,1.35
2022-10-22T06:12:50.404Z,1.38
2022-10-22T06:15:37.471Z,1.70
2022-10-22T06:18:24.720Z,1.70
2022-10-22T06:21:14.957Z,1.50
2022-10-22T06:24:02.404Z,1.77
2022-10-22T06:26:51.149Z,1.70
2022-10-22T06:29:38.188Z,1.52
2022-10-22T06:32:25.292Z,1.50
2022-10-22T06:35:12.362Z,1.55
2022-10-22T06:38:00.055Z,1.40
2022-10-22T06:40:47.284Z,1.40
2022-10-22T06:43:34.778Z,1.33
2022-10-22T06:46:22.424Z,1.40
2022-10-22T06:49:14.002Z,1.50
2022-10-22T06:52:01.113Z,2.03
2022-10-22T06:54:48.294Z,1.75
2022-10-22T06:57:35.454Z,1.02
2022-10-22T07:00:22.953Z,95.28
2022-10-22T07:03:13.929Z,999.90
2022-10-22T07:06:02.280Z,999.90
2022-10-22T07:08:49.751Z,999.90
2022-10-22T07:11:45.804Z,999.90
2022-10-22T07:14:33.168Z,999.90
2022-10-22T07:17:20.242Z,999.90
2022-10-22T07:20:07.804Z,999.90
2022-10-22T07:22:55.019Z,999.90
2022-10-22T07:25:42.308Z,999.90
2022-10-22T07:28:30.739Z,999.90
2022-10-22T07:31:18.490Z,999.90
2022-10-22T07:34:05.628Z,999.90
2022-10-22T07:36:53.436Z,999.90
2022-10-22T07:39:40.576Z,999.90
2022-10-22T07:45:15.124Z,999.90
2022-10-22T07:48:02.342Z,999.90
2022-10-22T07:50:50.747Z,999.90
2022-10-22T07:53:38.028Z,999.90
2022-10-22T07:56:25.109Z,999.90
2022-10-22T07:59:12.187Z,999.90
2022-10-22T08:01:59.233Z,999.90
2022-10-22T08:04:46.265Z,999.90
2022-10-22T08:07:33.315Z,999.90
2022-10-22T08:10:20.623Z,999.90
2022-10-22T08:13:08.311Z,757.08
2022-10-22T08:15:57.510Z,59.88
2022-10-22T08:18:45.024Z,60.53
2022-10-22T08:21:32.082Z,62.70
2022-10-22T08:24:19.155Z,60.47
2022-10-22T08:27:06.398Z,76.32
2022-10-22T08:29:53.587Z,74.70
2022-10-22T08:32:41.597Z,68.82
2022-10-22T08:35:28.701Z,68.43
2022-10-22T08:38:15.787Z,73.93
2022-10-22T08:41:34.074Z,82.90
2022-10-22T08:44:49.000Z,88.40
2022-10-22T08:47:59.313Z,90.30
2022-10-22T08:50:49.172Z,98.63
2022-10-22T08:53:51.220Z,96.43
2022-10-22T08:56:43.680Z,100.40
2022-10-22T08:59:43.933Z,100.47
2022-10-22T09:02:40.575Z,94.53
2022-10-22T09:05:43.373Z,93.63
2022-10-22T09:08:30.770Z,96.78
2022-10-22T09:11:33.276Z,96.47
2022-10-22T09:14:23.411Z,96.90
2022-10-22T09:17:26.657Z,96.75
2022-10-22T09:20:28.611Z,100.45
2022-10-22T09:23:38.944Z,101.20
2022-10-22T09:26:26.677Z,32.70
2022-10-22T09:29:19.191Z,39.95
2022-10-22T09:32:06.724Z,36.65
2022-10-22T09:34:58.268Z,36.70
2022-10-22T09:37:51.175Z,2.20
2022-10-22T09:40:49.677Z,3.30
2022-10-22T09:43:37.871Z,2.97
2022-10-22T09:46:29.756Z,2.70
2022-10-22T09:49:19.498Z,3.20
2022-10-22T09:52:26.192Z,3.72
2022-10-22T09:55:18.603Z,3.70
2022-10-22T09:58:05.788Z,3.50
2022-10-22T10:00:57.844Z,3.70
2022-10-22T10:03:44.916Z,4.65
2022-10-22T10:06:34.812Z,5.70
2022-10-22T10:09:24.957Z,7.53
2022-10-22T10:12:53.348Z,7.47
2022-10-22T10:15:45.661Z,7.57
2022-10-22T10:18:38.855Z,7.70
2022-10-22T10:21:39.030Z,7.68
2022-10-22T10:24:54.057Z,2.55
2022-10-22T10:27:45.660Z,2.08
2022-10-22T10:30:37.803Z,1.80
2022-10-22T10:33:42.509Z,1.90
2022-10-22T10:37:07.515Z,1.70
2022-10-22T10:40:19.434Z,1.50
2022-10-22T10:43:13.462Z,2.03
2022-10-22T10:46:24.080Z,1.60
2022-10-22T10:49:20.212Z,1.80
2022-10-22T10:52:31.992Z,1.98
2022-10-22T10:55:28.641Z,2.10
2022-10-22T10:58:25.417Z,2.90
2022-10-22T11:01:19.892Z,2.10
2022-10-22T11:04:13.147Z,1.90
2022-10-22T11:07:11.717Z,1.90
2022-10-22T11:10:30.810Z,274.42
2022-10-22T11:13:27.059Z,8.40
2022-10-22T11:16:24.435Z,8.20
2022-10-22T11:19:50.286Z,9.40
2022-10-22T11:23:06.716Z,9.80
2022-10-22T11:25:54.332Z,9.50
2022-10-22T11:28:47.679Z,10.80
2022-10-22T11:31:37.454Z,10.00
2022-10-22T11:34:34.452Z,10.40
2022-10-22T11:37:24.047Z,1.67
2022-10-22T11:40:29.408Z,1.70
2022-10-22T11:43:27.102Z,2.20
2022-10-22T11:46:17.290Z,1.77
2022-10-22T11:49:13.528Z,1.80
2022-10-22T11:52:23.094Z,2.00
2022-10-22T11:55:31.248Z,2.10
2022-10-22T11:58:29.517Z,2.50
2022-10-22T12:01:40.683Z,2.80
2022-10-22T12:04:41.521Z,2.10
2022-10-22T12:07:47.903Z,1.80
2022-10-22T12:10:49.274Z,1.80
2022-10-22T12:14:10.348Z,1.80
2022-10-22T12:16:58.927Z,2.13
2022-10-22T12:19:56.423Z,2.15
2022-10-22T12:22:46.587Z,2.00
2022-10-22T12:25:35.872Z,2.20
2022-10-22T12:28:23.122Z,2.10
2022-10-22T12:31:16.347Z,2.10
2022-10-22T12:34:03.859Z,2.00
2022-10-22T12:36:53.163Z,2.00
2022-10-22T12:39:40.333Z,2.13
2022-10-22T12:42:27.485Z,1.50
2022-10-22T12:45:14.627Z,1.55
2022-10-22T12:48:14.474Z,1.50
2022-10-22T12:51:04.000Z,1.50
2022-10-22T12:53:54.514Z,1.73
2022-10-22T12:56:41.733Z,1.90
2022-10-22T12:59:33.808Z,1.88
2022-10-22T13:02:26.133Z,1.90
2022-10-22T13:05:19.411Z,2.22
2022-10-22T13:08:10.979Z,2.55
2022-10-22T13:11:07.928Z,2.70
2022-10-22T13:14:02.852Z,3.17
2022-10-22T13:17:15.966Z,2.38
2022-10-22T13:20:05.393Z,2.13
2022-10-22T13:23:00.298Z,1.85
2022-10-22T13:26:17.770Z,1.30
2022-10-22T13:29:11.626Z,1.50
2022-10-22T13:31:58.936Z,1.60
2022-10-22T13:34:46.025Z,1.60
2022-10-22T13:37:34.268Z,1.98
2022-10-22T13:40:22.061Z,2.10
2022-10-22T13:43:09.207Z,1.85
2022-10-22T13:45:59.385Z,2.15
2022-10-22T13:48:48.389Z,2.25
2022-10-22T13:51:36.100Z,2.00
2022-10-22T13:54:24.746Z,2.20
2022-10-22T13:57:11.905Z,2.42
2022-10-22T13:59:58.955Z,4.70
2022-10-22T14:02:48.177Z,4.65
2022-10-22T14:05:35.525Z,5.60
2022-10-22T14:08:26.751Z,7.00
2022-10-22T14:11:14.551Z,6.50
2022-10-22T14:14:04.885Z,6.75
2022-10-22T14:16:53.945Z,6.90
2022-10-22T14:19:41.194Z,8.27
2022-10-22T14:22:28.467Z,7.45
2022-10-22T14:25:21.360Z,7.97
2022-10-22T14:28:10.957Z,7.40
2022-10-22T14:30:58.541Z,7.85
2022-10-22T14:33:46.529Z,7.53
2022-10-22T14:36:33.890Z,7.10
2022-10-22T14:39:21.587Z,6.70
2022-10-22T14:42:11.776Z,7.43
2022-10-22T14:44:58.833Z,7.63
2022-10-22T14:47:45.948Z,8.23
2022-10-22T14:50:33.011Z,9.30
2022-10-22T14:53:20.162Z,9.68
2022-10-22T14:56:11.085Z,999.90
2022-10-22T15:01:45.233Z,999.90
2022-10-22T15:04:32.614Z,999.90
2022-10-22T15:07:20.361Z,999.90
2022-10-22T15:10:08.760Z,999.90
2022-10-22T15:12:55.857Z,999.90
2022-10-22T15:15:43.015Z,999.90
2022-10-22T15:18:30.181Z,999.90
2022-10-22T15:21:19.913Z,999.90
2022-10-22T15:24:07.506Z,999.90
2022-10-22T15:26:54.890Z,999.90
2022-10-22T15:29:42.740Z,999.90
2022-10-22T15:32:29.973Z,999.90
2022-10-22T15:35:17.415Z,0.80
2022-10-22T15:38:06.593Z,1.35
2022-10-22T15:41:05.447Z,1.00
2022-10-22T15:43:53.114Z,0.80
2022-10-22T15:46:40.669Z,0.77
2022-10-22T15:49:28.595Z,0.88
2022-10-22T15:52:15.983Z,0.93
2022-10-22T15:55:10.306Z,1.00
2022-10-22T15:57:59.360Z,1.23
2022-10-22T16:00:49.106Z,1.15
2022-10-22T16:03:36.580Z,0.93
2022-10-22T16:06:23.655Z,1.00
2022-10-22T16:09:13.861Z,1.20
2022-10-22T16:12:01.117Z,1.02
2022-10-22T16:14:50.909Z,1.25
2022-10-22T16:17:38.170Z,1.15
2022-10-22T16:20:25.260Z,1.38
2022-10-22T16:23:12.370Z,1.20
2022-10-22T16:26:02.161Z,1.23
2022-10-22T16:28:49.272Z,1.30
2022-10-22T16:31:36.426Z,0.80
2022-10-22T16:34:25.850Z,1.15
2022-10-22T16:37:13.561Z,0.82
2022-10-22T16:40:03.140Z,1.15
2022-10-22T16:42:53.165Z,1.30
2022-10-22T16:45:47.618Z,1.48
2022-10-22T16:48:35.275Z,1.20
2022-10-22T16:51:25.269Z,2.30
2022-10-22T16:54:14.176Z,1.98
2022-10-22T16:57:01.231Z,1.88
2022-10-22T16:59:48.859Z,1.70
2022-10-22T17:02:37.286Z,1.42
2022-10-22T17:05:24.387Z,1.40
2022-10-22T17:08:11.689Z,1.52
2022-10-22T17:11:04.811Z,1.27
2022-10-22T17:13:54.328Z,1.13
2022-10-22T17:16:41.424Z,1.10
2022-10-22T17:19:28.519Z,1.58
2022-10-22T17:22:17.688Z,0.90
2022-10-22T17:25:42.713Z,1.10
2022-10-22T17:28:30.167Z,1.02
2022-10-22T17:31:25.590Z,0.95
2022-10-22T17:34:17.269Z,0.90
2022-10-22T17:37:04.326Z,1.00
2022-10-22T17:39:51.403Z,1.10
2022-10-22T17:42:38.676Z,1.00
2022-10-22T17:45:26.746Z,1.25
2022-10-22T17:48:13.871Z,0.90
2022-10-22T17:51:01.004Z,1.00
2022-10-22T17:53:50.640Z,1.10
2022-10-22T17:56:40.102Z,1.20
2022-10-22T17:59:27.465Z,1.10
2022-10-22T18:02:16.899Z,1.40
2022-10-22T18:05:04.269Z,1.00
2022-10-22T18:07:55.330Z,1.00
2022-10-22T18:13:29.358Z,1.10
2022-10-22T18:16:17.714Z,1.10
2022-10-22T18:19:05.329Z,0.90
2022-10-22T18:21:52.609Z,1.10
2022-10-22T18:24:40.069Z,0.90
2022-10-22T18:27:27.291Z,0.93
2022-10-22T18:30:14.507Z,1.17
2022-10-22T18:33:01.646Z,1.10
2022-10-22T18:35:48.729Z,1.20
2022-10-22T18:38:38.233Z,1.25
2022-10-22T18:41:26.525Z,1.13
2022-10-22T18:44:15.114Z,1.10
2022-10-22T18:47:02.325Z,1.27
2022-10-22T18:49:51.540Z,0.93
2022-10-22T18:52:38.936Z,1.27
2022-10-22T18:55:26.245Z,1.13
2022-10-22T18:58:13.355Z,1.65
2022-10-22T19:01:07.202Z,1.10
2022-10-22T19:03:54.996Z,1.27
2022-10-22T19:06:45.308Z,1.17
2022-10-22T19:09:33.109Z,1.00
2022-10-22T19:12:21.546Z,1.38
2022-10-22T19:15:09.042Z,1.23
2022-10-22T19:17:56.125Z,1.13
2022-10-22T19:20:44.382Z,1.35
2022-10-22T19:23:31.852Z,1.02
2022-10-22T19:26:21.411Z,1.20
2022-10-22T19:29:10.923Z,1.48
2022-10-22T19:31:58.375Z,2.08
2022-10-22T19:34:46.760Z,2.03
2022-10-22T19:37:34.396Z,1.10
2022-10-22T19:40:25.632Z,1.10
2022-10-22T19:43:14.383Z,1.05
2022-10-22T19:48:52.354Z,1.20
2022-10-22T19:51:40.308Z,1.02
2022-10-22T19:54:27.403Z,1.17
2022-10-22T19:57:16.461Z,1.10
2022-10-22T20:00:05.041Z,1.38
2022-10-22T20:02:57.033Z,1.10
2022-10-22T20:05:44.311Z,1.00
2022-10-22T20:08:34.507Z,1.20
2022-10-22T20:11:24.537Z,1.08
2022-10-22T20:14:12.849Z,1.30
2022-10-22T20:17:00.278Z,0.75
2022-10-22T20:19:47.567Z,1.00
2022-10-22T20:22:34.715Z,1.10
2022-10-22T20:25:21.848Z,1.10
2022-10-22T20:28:09.464Z,1.00
2022-10-22T20:30:56.600Z,1.10
2022-10-22T20:33:43.711Z,1.10
2022-10-22T20:36:32.443Z,1.00
2022-10-22T20:39:19.713Z,1.10
2022-10-22T20:42:06.760Z,1.02
2022-10-22T20:44:53.818Z,1.20
2022-10-22T20:47:51.415Z,1.20
2022-10-22T20:50:45.419Z,0.93
2022-10-22T20:53:32.565Z,1.10
2022-10-22T20:56:20.119Z,1.00
2022-10-22T20:59:10.746Z,1.00
2022-10-22T21:02:00.753Z,1.10
2022-10-22T21:04:47.918Z,1.00
2022-10-22T21:07:35.086Z,1.00
2022-10-22T21:10:22.164Z,0.90
2022-10-22T21:13:09.507Z,0.98
2022-10-22T21:15:56.681Z,1.00
2022-10-22T21:18:43.906Z,1.10
2022-10-22T21:21:31.048Z,1.10
2022-10-22T21:24:18.341Z,1.10
2022-10-22T21:27:07.407Z,1.45
2022-10-22T21:29:54.503Z,1.02
2022-10-22T21:32:41.794Z,1.13
2022-10-22T21:35:29.237Z,1.27
2022-10-22T21:38:16.571Z,1.30
2022-10-22T21:41:08.157Z,1.45
2022-10-22T21:43:55.338Z,1.20
2022-10-22T21:46:42.585Z,1.27
2022-10-22T21:49:29.744Z,1.33
2022-10-22T21:52:16.790Z,1.30
2022-10-22T21:55:04.318Z,1.20
2022-10-22T21:57:51.423Z,1.20
2022-10-22T22:00:38.636Z,1.55
2022-10-22T22:03:26.201Z,1.30
2022-10-22T22:06:14.802Z,1.30
2022-10-22T22:09:05.216Z,1.60
2022-10-22T22:11:52.337Z,1.30
2022-10-22T22:14:39.730Z,1.30
2022-10-22T22:17:26.847Z,1.10
2022-10-22T22:20:13.904Z,1.20
2022-10-22T22:23:01.049Z,1.20
2022-10-22T22:25:48.108Z,1.65
2022-10-22T22:28:36.061Z,1.20
2022-10-22T22:31:31.882Z,1.70
2022-10-22T22:34:18.977Z,1.33
2022-10-22T22:37:06.968Z,1.15
2022-10-22T22:39:54.812Z,1.30
2022-10-22T22:42:42.063Z,1.13
2022-10-22T22:45:29.374Z,1.05
2022-10-22T22:48:16.932Z,1.10
2022-10-22T22:51:07.492Z,1.20
2022-10-22T22:53:54.818Z,1.40
2022-10-22T22:56:41.957Z,1.30
2022-10-22T22:59:29.140Z,1.30
2022-10-22T23:02:16.314Z,1.15
2022-10-22T23:05:03.576Z,1.40
2022-10-22T23:07:50.690Z,1.30
2022-10-22T23:10:37.881Z,1.30
2022-10-22T23:13:25.073Z,1.23
2022-10-22T23:15:52.115Z,1.17
2022-10-22T23:18:20.379Z,1.40
2022-10-22T23:21:12.312Z,1.20
2022-10-22T23:24:02.848Z,1.33
2022-10-22T23:26:52.426Z,1.30
2022-10-22T23:29:39.469Z,1.40
2022-10-22T23:32:26.598Z,2.03
2022-10-22T23:35:13.778Z,1.27
2022-10-22T23:38:00.985Z,1.48
2022-10-22T23:40:56.389Z,1.50
2022-10-22T23:43:44.605Z,1.40
2022-10-22T23:46:33.303Z,1.25
2022-10-22T23:49:21.409Z,1.15
2022-10-22T23:52:08.550Z,1.48
2022-10-22T23:54:55.634Z,1.20
2022-10-22T23:57:42.792Z,1.40
